Time;durP1;ratioP1;P1;durP2;ratioP2;P2;SDS_P1;SDS_P2;PMS_P1;PMS_P2;Temp;Humidity;BMP_temperature;BMP_pressure;BME280_temperature;BME280_humidity;BME280_pressure;Samples;Min_cycle;Max_cycle;Signal;HPM_P1;HPM_P2
2024/01/28 00:01:00;;;;;;;11.38;2.53;;;;;;;;;;5054764;28;20021;-26
2024/01/28 00:03:28;;;;;;;10.00;2.63;;;;;;;;;;5050784;28;20144;-26
2024/01/28 00:05:55;;;;;;;9.05;2.80;;;;;;;;;;5053968;28;20032;-26
2024/01/28 00:08:25;;;;;;;12.98;2.88;;;;;;;;;;5054580;28;20025;-27
2024/01/28 00:10:53;;;;;;;12.32;2.97;;;;;;;;;;5054456;28;20107;-26
2024/01/28 00:13:23;;;;;;;12.55;2.88;;;;;;;;;;5054368;28;20041;-26
2024/01/28 00:15:52;;;;;;;15.27;3.00;;;;;;;;;;5050400;28;20037;-26
2024/01/28 00:18:20;;;;;;;15.00;2.88;;;;;;;;;;5054306;28;20037;-26
2024/01/28 00:20:47;;;;;;;12.35;2.70;;;;;;;;;;5054439;28;20029;-26
2024/01/28 00:23:14;;;;;;;9.30;2.42;;;;;;;;;;5054178;28;20029;-26
2024/01/28 00:25:41;;;;;;;12.13;3.08;;;;;;;;;;5054227;28;20147;-26
2024/01/28 00:28:08;;;;;;;8.43;2.60;;;;;;;;;;5050271;28;20136;-26
2024/01/28 00:30:35;;;;;;;10.00;2.50;;;;;;;;;;5054100;28;20143;-26
2024/01/28 00:33:02;;;;;;;11.30;2.40;;;;;;;;;;5054012;28;20032;-26
2024/01/28 00:35:29;;;;;;;8.73;2.30;;;;;;;;;;5054138;28;20495;-26
2024/01/28 00:37:57;;;;;;;9.65;2.35;;;;;;;;;;5051882;28;20024;-26
2024/01/28 00:40:25;;;;;;;10.00;2.75;;;;;;;;;;5052061;28;20112;-26
2024/01/28 00:42:52;;;;;;;13.00;2.78;;;;;;;;;;5053742;28;20029;-26
2024/01/28 00:45:19;;;;;;;13.85;2.75;;;;;;;;;;5052392;28;20056;-26
2024/01/28 00:47:46;;;;;;;11.02;2.30;;;;;;;;;;5053870;28;20021;-26
2024/01/28 00:50:13;;;;;;;9.38;2.40;;;;;;;;;;5050769;28;20436;-26
2024/01/28 00:52:40;;;;;;;11.88;2.90;;;;;;;;;;5050912;28;20737;-26
2024/01/28 00:55:08;;;;;;;14.07;2.67;;;;;;;;;;5053673;28;20045;-26
2024/01/28 00:57:35;;;;;;;13.48;2.58;;;;;;;;;;5053675;28;20057;-26
2024/01/28 01:00:03;;;;;;;8.43;2.25;;;;;;;;;;5053773;28;20083;-26
2024/01/28 01:02:30;;;;;;;12.60;2.40;;;;;;;;;;5049627;28;20758;-26
2024/01/28 01:04:57;;;;;;;7.10;2.20;;;;;;;;;;5052942;28;20526;-26
2024/01/28 01:07:24;;;;;;;6.70;2.22;;;;;;;;;;5053484;28;20075;-26
2024/01/28 01:09:51;;;;;;;10.43;2.63;;;;;;;;;;5053591;28;20543;-26
2024/01/28 01:12:18;;;;;;;10.05;2.33;;;;;;;;;;5053453;28;20403;-26
2024/01/28 01:14:45;;;;;;;9.50;2.78;;;;;;;;;;5048804;28;20481;-27
2024/01/28 01:17:12;;;;;;;12.82;2.88;;;;;;;;;;5053342;28;20021;-26
2024/01/28 01:19:39;;;;;;;8.98;2.25;;;;;;;;;;5053426;28;20031;-26
2024/01/28 01:22:06;;;;;;;6.93;1.83;;;;;;;;;;5053234;28;20024;-26
2024/01/28 01:24:33;;;;;;;11.65;2.22;;;;;;;;;;5052485;28;20079;-26
2024/01/28 01:27:00;;;;;;;9.35;2.10;;;;;;;;;;5049521;28;20474;-26
2024/01/28 01:29:27;;;;;;;9.13;2.65;;;;;;;;;;5051770;28;20029;-27
2024/01/28 01:31:55;;;;;;;8.02;2.33;;;;;;;;;;5052950;28;20390;-26
2024/01/28 01:34:21;;;;;;;10.90;1.85;;;;;;;;;;5052982;28;20483;-26
2024/01/28 01:36:48;;;;;;;7.35;1.88;;;;;;;;;;5050532;28;20040;-27
2024/01/28 01:39:18;;;;;;;8.00;2.03;;;;;;;;;;5050901;28;20068;-26
2024/01/28 01:41:46;;;;;;;8.73;1.75;;;;;;;;;;5052784;28;20037;-26
2024/01/28 01:44:13;;;;;;;7.28;2.00;;;;;;;;;;5052489;28;21188;-26
2024/01/28 01:46:42;;;;;;;6.60;2.10;;;;;;;;;;5052662;28;20055;-26
2024/01/28 01:49:10;;;;;;;5.90;1.77;;;;;;;;;;5049466;28;20091;-27
2024/01/28 01:51:37;;;;;;;5.13;1.77;;;;;;;;;;5051536;28;20053;-26
2024/01/28 01:54:04;;;;;;;8.70;1.90;;;;;;;;;;5052669;28;20499;-26
2024/01/28 01:56:34;;;;;;;11.85;2.22;;;;;;;;;;5052207;28;20065;-26
2024/01/28 01:59:02;;;;;;;7.45;2.08;;;;;;;;;;5052542;28;20036;-26
2024/01/28 02:01:30;;;;;;;11.43;1.92;;;;;;;;;;5048459;28;20040;-26
2024/01/28 02:03:58;;;;;;;7.35;1.90;;;;;;;;;;5051880;28;20426;-26
2024/01/28 02:06:27;;;;;;;6.43;2.03;;;;;;;;;;5052176;28;20029;-26
2024/01/28 02:08:55;;;;;;;7.70;1.90;;;;;;;;;;5052532;28;20094;-26
2024/01/28 02:11:23;;;;;;;7.78;2.10;;;;;;;;;;5052211;28;20109;-26
2024/01/28 02:13:49;;;;;;;6.60;2.00;;;;;;;;;;5047542;28;20043;-27
2024/01/28 02:16:17;;;;;;;6.30;1.88;;;;;;;;;;5052326;28;20380;-26
2024/01/28 02:18:44;;;;;;;9.50;1.75;;;;;;;;;;5052139;28;20398;-26
2024/01/28 02:21:12;;;;;;;4.18;1.73;;;;;;;;;;5052268;28;20270;-26
2024/01/28 02:23:39;;;;;;;9.15;1.83;;;;;;;;;;5051950;28;20060;-26
2024/01/28 02:26:06;;;;;;;8.18;2.00;;;;;;;;;;5047374;28;20033;-26
2024/01/28 02:28:33;;;;;;;7.57;2.03;;;;;;;;;;5052142;28;20036;-26
2024/01/28 02:31:00;;;;;;;15.57;2.13;;;;;;;;;;5051837;28;20040;-26
2024/01/28 02:33:27;;;;;;;8.32;1.92;;;;;;;;;;5051932;28;20044;-26
2024/01/28 02:35:57;;;;;;;6.53;1.80;;;;;;;;;;5050666;28;20056;-26
2024/01/28 02:38:24;;;;;;;9.30;2.05;;;;;;;;;;5048706;28;20172;-26
2024/01/28 02:40:52;;;;;;;10.18;2.00;;;;;;;;;;5051788;28;20037;-26
2024/01/28 02:43:19;;;;;;;5.00;1.52;;;;;;;;;;5051585;28;20041;-26
2024/01/28 02:45:46;;;;;;;9.00;1.77;;;;;;;;;;5051642;28;20033;-26
2024/01/28 02:48:13;;;;;;;6.57;1.92;;;;;;;;;;5049388;28;20052;-26
2024/01/28 02:50:40;;;;;;;4.13;1.73;;;;;;;;;;5049486;28;20082;-26
2024/01/28 02:53:07;;;;;;;4.68;1.60;;;;;;;;;;5051508;28;20056;-26
2024/01/28 02:55:36;;;;;;;7.82;2.17;;;;;;;;;;5051597;28;20033;-26
2024/01/28 02:58:03;;;;;;;5.70;1.67;;;;;;;;;;5051505;28;20033;-26
2024/01/28 03:00:30;;;;;;;4.30;1.58;;;;;;;;;;5048859;28;20100;-26
2024/01/28 03:02:57;;;;;;;8.98;1.50;;;;;;;;;;5048948;28;20040;-26
2024/01/28 03:05:24;;;;;;;5.43;1.77;;;;;;;;;;5051360;28;20025;-26
2024/01/28 03:07:51;;;;;;;4.50;1.30;;;;;;;;;;5050705;28;20445;-26
2024/01/28 03:10:18;;;;;;;5.93;1.40;;;;;;;;;;5051167;28;20029;-26
2024/01/28 03:12:49;;;;;;;6.68;1.60;;;;;;;;;;5047941;28;20029;-26
2024/01/28 03:15:19;;;;;;;9.52;1.55;;;;;;;;;;5050338;28;20033;-26
2024/01/28 03:17:46;;;;;;;7.05;1.50;;;;;;;;;;5051326;28;20025;-26
2024/01/28 03:20:13;;;;;;;5.38;1.50;;;;;;;;;;5051472;28;20037;-26
2024/01/28 03:22:40;;;;;;;9.27;1.48;;;;;;;;;;5051351;28;20061;-26
2024/01/28 03:25:08;;;;;;;8.05;1.65;;;;;;;;;;5047004;28;20727;-27
2024/01/28 03:27:35;;;;;;;4.20;1.38;;;;;;;;;;5050965;28;20418;-26
2024/01/28 03:30:04;;;;;;;8.05;1.95;;;;;;;;;;5051240;28;20028;-26
2024/01/28 03:32:32;;;;;;;6.03;1.33;;;;;;;;;;5050978;28;20120;-26
2024/01/28 03:35:00;;;;;;;8.10;1.77;;;;;;;;;;5051096;28;20076;-26
2024/01/28 03:37:28;;;;;;;5.13;1.23;;;;;;;;;;5046438;28;20123;-26
2024/01/28 03:39:55;;;;;;;4.68;1.45;;;;;;;;;;5051261;28;20036;-26
2024/01/28 03:42:23;;;;;;;4.70;1.50;;;;;;;;;;5051050;28;20037;-26
2024/01/28 03:44:50;;;;;;;7.80;1.35;;;;;;;;;;5050689;28;20102;-26
2024/01/28 03:47:17;;;;;;;5.68;1.35;;;;;;;;;;5049204;28;20170;-26
2024/01/28 03:49:44;;;;;;;8.30;1.50;;;;;;;;;;5047157;28;20535;-26
2024/01/28 03:52:11;;;;;;;5.15;1.10;;;;;;;;;;5050921;28;20078;-26
2024/01/28 03:54:38;;;;;;;4.35;1.20;;;;;;;;;;5050900;28;20029;-26
2024/01/28 03:57:05;;;;;;;4.07;1.17;;;;;;;;;;5051006;28;20033;-26
2024/01/28 03:59:32;;;;;;;3.53;1.27;;;;;;;;;;5049938;28;20035;-26
2024/01/28 04:01:59;;;;;;;6.28;1.00;;;;;;;;;;5047621;28;20029;-26
2024/01/28 04:04:26;;;;;;;3.72;1.10;;;;;;;;;;5050884;28;20559;-26
2024/01/28 04:06:53;;;;;;;3.25;1.23;;;;;;;;;;5050765;28;20021;-26
2024/01/28 04:09:20;;;;;;;6.60;1.30;;;;;;;;;;5050924;28;20025;-26
2024/01/28 04:11:47;;;;;;;2.92;1.48;;;;;;;;;;5048843;28;20041;-26
2024/01/28 04:14:14;;;;;;;3.10;1.30;;;;;;;;;;5048471;28;20589;-26
2024/01/28 04:16:41;;;;;;;4.55;1.30;;;;;;;;;;5050882;28;20033;-26
2024/01/28 04:19:08;;;;;;;2.40;0.98;;;;;;;;;;5050836;28;20571;-26
2024/01/28 04:21:35;;;;;;;5.72;0.93;;;;;;;;;;5054452;28;20028;-27
2024/01/28 04:24:02;;;;;;;5.53;1.10;;;;;;;;;;5051701;28;20025;-26
2024/01/28 04:26:29;;;;;;;5.65;1.40;;;;;;;;;;5052355;28;20025;-26
2024/01/28 04:28:56;;;;;;;6.45;1.17;;;;;;;;;;5054275;28;20108;-26
2024/01/28 04:31:26;;;;;;;4.88;0.73;;;;;;;;;;5053976;28;20044;-26
2024/01/28 04:33:57;;;;;;;5.40;1.15;;;;;;;;;;5054005;28;20065;-26
2024/01/28 04:36:27;;;;;;;2.93;0.93;;;;;;;;;;5049778;28;20036;-27
2024/01/28 04:38:54;;;;;;;5.18;1.13;;;;;;;;;;5053373;28;20087;-26
2024/01/28 04:41:21;;;;;;;4.10;1.23;;;;;;;;;;5054009;28;20025;-26
2024/01/28 04:43:48;;;;;;;3.95;1.08;;;;;;;;;;5058620;28;20044;-26
2024/01/28 04:46:18;;;;;;;4.55;1.38;;;;;;;;;;5074044;28;20036;-26
2024/01/28 04:48:46;;;;;;;2.97;1.00;;;;;;;;;;5069357;28;20090;-27
2024/01/28 04:51:12;;;;;;;2.78;1.10;;;;;;;;;;5073884;28;20094;-26
2024/01/28 04:53:39;;;;;;;3.35;1.17;;;;;;;;;;5073918;28;20032;-26
2024/01/28 04:56:07;;;;;;;3.22;1.13;;;;;;;;;;5073877;28;20037;-26
2024/01/28 04:58:34;;;;;;;6.55;1.08;;;;;;;;;;5073808;28;20047;-26
2024/01/28 05:01:01;;;;;;;2.90;0.93;;;;;;;;;;5069104;28;20103;-26
2024/01/28 05:03:27;;;;;;;2.53;0.77;;;;;;;;;;5073591;28;20421;-26
2024/01/28 05:05:54;;;;;;;3.38;0.95;;;;;;;;;;5073605;28;20032;-26
2024/01/28 05:08:21;;;;;;;4.15;1.05;;;;;;;;;;5073552;28;20032;-26
2024/01/28 05:10:48;;;;;;;3.05;0.80;;;;;;;;;;5072907;28;20032;-26
2024/01/28 05:13:15;;;;;;;5.35;0.90;;;;;;;;;;5069415;28;20021;-26
2024/01/28 05:15:42;;;;;;;2.45;1.02;;;;;;;;;;5073461;28;20037;-27
2024/01/28 05:18:09;;;;;;;2.92;0.80;;;;;;;;;;5073081;28;20063;-26
2024/01/28 05:20:37;;;;;;;5.75;1.10;;;;;;;;;;5073318;28;20024;-26
2024/01/28 05:23:04;;;;;;;3.80;0.90;;;;;;;;;;5071855;28;20123;-26
2024/01/28 05:25:32;;;;;;;3.03;1.27;;;;;;;;;;5069710;28;20039;-26
2024/01/28 05:27:59;;;;;;;4.07;1.00;;;;;;;;;;5073289;28;20063;-26
2024/01/28 05:30:27;;;;;;;4.07;0.85;;;;;;;;;;5073198;28;20037;-26
2024/01/28 05:32:54;;;;;;;5.93;1.30;;;;;;;;;;5072210;28;20158;-26
2024/01/28 05:35:21;;;;;;;5.65;1.08;;;;;;;;;;5070847;28;20115;-26
2024/01/28 05:37:48;;;;;;;6.88;1.17;;;;;;;;;;5070230;28;20036;-26
2024/01/28 05:40:16;;;;;;;4.93;0.90;;;;;;;;;;5073005;28;20037;-26
2024/01/28 05:42:43;;;;;;;5.20;0.90;;;;;;;;;;5072853;28;20024;-27
2024/01/28 05:45:10;;;;;;;5.40;1.00;;;;;;;;;;5072522;28;20044;-26
2024/01/28 05:47:37;;;;;;;3.47;0.90;;;;;;;;;;5069840;28;20048;-26
2024/01/28 05:50:04;;;;;;;6.70;1.10;;;;;;;;;;5071371;28;20032;-26
2024/01/28 05:52:31;;;;;;;4.63;0.95;;;;;;;;;;5072640;28;20036;-26
2024/01/28 05:54:58;;;;;;;4.57;1.00;;;;;;;;;;5072545;28;20025;-26
2024/01/28 05:57:25;;;;;;;4.57;1.10;;;;;;;;;;5072495;28;20559;-26
2024/01/28 05:59:52;;;;;;;4.32;0.88;;;;;;;;;;5068848;28;20039;-26
2024/01/28 06:02:19;;;;;;;3.33;1.05;;;;;;;;;;5068437;28;20036;-26
2024/01/28 06:04:45;;;;;;;3.63;1.10;;;;;;;;;;5072320;28;20111;-26
2024/01/28 06:07:12;;;;;;;5.05;0.80;;;;;;;;;;5072379;28;20036;-26
2024/01/28 06:09:39;;;;;;;3.80;0.93;;;;;;;;;;5072657;28;20040;-26
2024/01/28 06:12:06;;;;;;;4.07;0.90;;;;;;;;;;5068097;28;20029;-26
2024/01/28 06:14:33;;;;;;;4.95;0.88;;;;;;;;;;5072059;28;20555;-26
2024/01/28 06:17:00;;;;;;;2.90;0.90;;;;;;;;;;5072113;28;20067;-26
2024/01/28 06:19:28;;;;;;;3.78;1.05;;;;;;;;;;5072107;28;20039;-26
2024/01/28 06:21:55;;;;;;;3.28;0.98;;;;;;;;;;5072066;28;20497;-26
2024/01/28 06:24:22;;;;;;;2.78;0.80;;;;;;;;;;5067373;28;20502;-26
2024/01/28 06:26:49;;;;;;;2.50;1.00;;;;;;;;;;5071589;28;20405;-26
2024/01/28 06:29:16;;;;;;;2.67;0.70;;;;;;;;;;5072065;28;20027;-26
2024/01/28 06:31:43;;;;;;;2.60;0.90;;;;;;;;;;5071876;28;20461;-26
2024/01/28 06:34:09;;;;;;;4.90;0.98;;;;;;;;;;5071286;28;20123;-27
2024/01/28 06:36:36;;;;;;;2.50;0.80;;;;;;;;;;5068054;28;20044;-26
2024/01/28 06:39:04;;;;;;;5.85;1.10;;;;;;;;;;5071537;28;20041;-26
2024/01/28 06:41:30;;;;;;;4.80;1.00;;;;;;;;;;5071796;28;20035;-26
2024/01/28 06:43:57;;;;;;;3.65;0.88;;;;;;;;;;5071303;28;20040;-26
2024/01/28 06:46:24;;;;;;;3.55;0.80;;;;;;;;;;5069886;28;20043;-26
2024/01/28 06:48:52;;;;;;;4.55;1.13;;;;;;;;;;5069319;28;20393;-26
2024/01/28 06:51:19;;;;;;;4.72;1.00;;;;;;;;;;5071715;28;20024;-26
2024/01/28 06:53:47;;;;;;;3.83;0.82;;;;;;;;;;5071726;28;20132;-26
2024/01/28 06:56:14;;;;;;;4.28;0.80;;;;;;;;;;5071696;28;20057;-26
2024/01/28 06:58:43;;;;;;;5.25;0.77;;;;;;;;;;5067772;28;20020;-26
2024/01/28 07:01:13;;;;;;;1.67;0.70;;;;;;;;;;5071190;28;20494;-26
2024/01/28 07:03:40;;;;;;;5.88;0.95;;;;;;;;;;5071528;28;20089;-26
2024/01/28 07:06:07;;;;;;;3.33;0.80;;;;;;;;;;5071505;28;20529;-26
2024/01/28 07:08:34;;;;;;;3.60;0.93;;;;;;;;;;5071543;28;20033;-26
2024/01/28 07:11:04;;;;;;;3.17;0.95;;;;;;;;;;5066738;28;20039;-26
2024/01/28 07:13:31;;;;;;;2.10;0.98;;;;;;;;;;5071390;28;20454;-26
2024/01/28 07:15:58;;;;;;;3.58;0.85;;;;;;;;;;5071511;28;20100;-26
2024/01/28 07:18:24;;;;;;;2.90;0.93;;;;;;;;;;5071329;28;20496;-26
2024/01/28 07:20:51;;;;;;;4.65;0.88;;;;;;;;;;5071114;28;20158;-26
2024/01/28 07:23:18;;;;;;;2.28;0.80;;;;;;;;;;5067330;28;20036;-26
2024/01/28 07:25:45;;;;;;;3.22;0.90;;;;;;;;;;5071197;28;20032;-26
2024/01/28 07:28:12;;;;;;;3.15;0.70;;;;;;;;;;5071246;28;20443;-26
2024/01/28 07:30:39;;;;;;;3.95;0.82;;;;;;;;;;5071306;28;20110;-26
2024/01/28 07:33:08;;;;;;;3.20;0.85;;;;;;;;;;5067286;28;20418;-27
2024/01/28 07:35:35;;;;;;;2.70;0.70;;;;;;;;;;5068342;28;20036;-26
2024/01/28 07:38:03;;;;;;;3.25;1.13;;;;;;;;;;5071348;28;20024;-26
2024/01/28 07:40:30;;;;;;;2.33;0.85;;;;;;;;;;5071521;28;20046;-26
2024/01/28 07:42:57;;;;;;;5.88;1.00;;;;;;;;;;5071218;28;20025;-26
2024/01/28 07:45:24;;;;;;;5.60;1.08;;;;;;;;;;5067033;28;20506;-26
2024/01/28 07:47:51;;;;;;;3.15;0.88;;;;;;;;;;5069852;28;20031;-26
2024/01/28 07:50:18;;;;;;;3.30;1.13;;;;;;;;;;5070995;28;20032;-26
2024/01/28 07:52:45;;;;;;;3.33;1.08;;;;;;;;;;5071303;28;20037;-26
2024/01/28 07:55:12;;;;;;;3.03;0.80;;;;;;;;;;5072759;28;20044;-26
2024/01/28 07:57:39;;;;;;;2.92;0.93;;;;;;;;;;5070391;28;20106;-26
2024/01/28 08:00:06;;;;;;;4.70;0.90;;;;;;;;;;5074937;28;20076;-26
2024/01/28 08:02:33;;;;;;;5.13;0.82;;;;;;;;;;5074741;28;20024;-26
2024/01/28 08:05:00;;;;;;;2.35;0.65;;;;;;;;;;5074641;28;20036;-26
2024/01/28 08:07:27;;;;;;;2.47;1.00;;;;;;;;;;5074966;28;20445;-26
2024/01/28 08:09:54;;;;;;;3.63;1.00;;;;;;;;;;5070703;28;20032;-26
2024/01/28 08:12:21;;;;;;;1.92;0.80;;;;;;;;;;5074522;28;20499;-26
2024/01/28 08:14:48;;;;;;;3.65;1.00;;;;;;;;;;5074306;28;20055;-26
2024/01/28 08:17:15;;;;;;;4.07;1.20;;;;;;;;;;5074598;28;20039;-26
2024/01/28 08:19:42;;;;;;;3.38;0.80;;;;;;;;;;5073513;28;20035;-26
2024/01/28 08:22:09;;;;;;;3.28;0.90;;;;;;;;;;5071137;28;20024;-26
2024/01/28 08:24:37;;;;;;;3.17;0.88;;;;;;;;;;5074306;28;20033;-26
2024/01/28 08:27:04;;;;;;;3.15;0.75;;;;;;;;;;5074292;28;20029;-26
2024/01/28 08:29:31;;;;;;;3.20;1.23;;;;;;;;;;5074353;28;20044;-26
2024/01/28 08:31:58;;;;;;;4.15;0.90;;;;;;;;;;5072503;28;20497;-27
2024/01/28 08:34:25;;;;;;;2.38;0.70;;;;;;;;;;5070027;28;20450;-26
2024/01/28 08:36:52;;;;;;;3.00;0.88;;;;;;;;;;5074066;28;20039;-26
2024/01/28 08:39:19;;;;;;;3.78;0.82;;;;;;;;;;5074271;28;20068;-26
2024/01/28 08:41:46;;;;;;;1.95;0.75;;;;;;;;;;5074139;28;20521;-26
2024/01/28 08:44:14;;;;;;;4.05;0.88;;;;;;;;;;5071571;28;20123;-26
2024/01/28 08:46:41;;;;;;;4.20;0.80;;;;;;;;;;5071805;28;20120;-26
2024/01/28 08:49:08;;;;;;;2.17;0.80;;;;;;;;;;5074001;28;20032;-26
2024/01/28 08:51:41;;;;;;;2.38;0.90;;;;;;;;;;5074027;28;20104;-26
2024/01/28 08:54:08;;;;;;;3.40;0.85;;;;;;;;;;5073818;28;20375;-26
2024/01/28 08:56:35;;;;;;;2.80;0.90;;;;;;;;;;5070718;28;20029;-26
2024/01/28 08:59:01;;;;;;;4.47;0.80;;;;;;;;;;5072131;28;20420;-26
2024/01/28 09:01:28;;;;;;;3.75;1.00;;;;;;;;;;5073697;28;20105;-26
2024/01/28 09:03:55;;;;;;;3.25;0.80;;;;;;;;;;5073664;28;20099;-26
2024/01/28 09:06:22;;;;;;;2.63;0.70;;;;;;;;;;5072483;28;20029;-26
2024/01/28 09:08:49;;;;;;;3.15;0.70;;;;;;;;;;5068370;28;20028;-26
2024/01/28 09:11:17;;;;;;;2.63;0.98;;;;;;;;;;5072670;28;20104;-26
2024/01/28 09:13:43;;;;;;;2.58;0.90;;;;;;;;;;5073435;28;20479;-26
2024/01/28 09:16:10;;;;;;;3.65;0.95;;;;;;;;;;5073365;28;20032;-26
2024/01/28 09:18:42;;;;;;;4.40;1.10;;;;;;;;;;5073473;28;20036;-26
2024/01/28 09:21:10;;;;;;;3.58;0.95;;;;;;;;;;5068557;28;20032;-26
2024/01/28 09:23:37;;;;;;;5.63;1.13;;;;;;;;;;5073335;28;20052;-26
2024/01/28 09:26:05;;;;;;;3.63;1.00;;;;;;;;;;5073210;28;20058;-26
2024/01/28 09:28:32;;;;;;;2.35;1.08;;;;;;;;;;5073249;28;20032;-26
2024/01/28 09:30:59;;;;;;;3.47;1.20;;;;;;;;;;5073053;28;20029;-26
2024/01/28 09:33:27;;;;;;;1.38;0.90;;;;;;;;;;5068348;28;20368;-26
2024/01/28 09:35:54;;;;;;;5.70;1.25;;;;;;;;;;5072977;28;20048;-26
2024/01/28 09:38:21;;;;;;;3.80;1.02;;;;;;;;;;5073062;28;20037;-26
2024/01/28 09:40:49;;;;;;;3.28;1.00;;;;;;;;;;5072951;28;20035;-26
2024/01/28 09:43:20;;;;;;;2.47;0.80;;;;;;;;;;5072557;28;20024;-27
2024/01/28 09:45:47;;;;;;;3.05;0.98;;;;;;;;;;5068718;28;20106;-26
2024/01/28 09:48:14;;;;;;;2.53;0.98;;;;;;;;;;5072887;28;20095;-26
2024/01/28 09:50:41;;;;;;;3.88;1.00;;;;;;;;;;5072701;28;20482;-26
2024/01/28 09:53:10;;;;;;;3.58;1.15;;;;;;;;;;5072700;28;20032;-26
2024/01/28 09:55:37;;;;;;;4.75;1.20;;;;;;;;;;5071159;28;20032;-27
2024/01/28 09:58:04;;;;;;;4.03;1.00;;;;;;;;;;5069089;28;20033;-26
2024/01/28 10:00:31;;;;;;;2.20;0.82;;;;;;;;;;5072456;28;20111;-26
2024/01/28 10:02:58;;;;;;;1.95;0.80;;;;;;;;;;5072475;28;20020;-26
2024/01/28 10:05:25;;;;;;;2.95;0.85;;;;;;;;;;5072413;28;20031;-26
2024/01/28 10:08:02;;;;;;;2.40;1.05;;;;;;;;;;5070579;28;20112;-26
2024/01/28 10:10:28;;;;;;;2.20;1.00;;;;;;;;;;5069840;28;20483;-26
2024/01/28 10:12:56;;;;;;;3.28;1.20;;;;;;;;;;5072324;28;20035;-26
2024/01/28 10:15:25;;;;;;;5.13;1.23;;;;;;;;;;5072075;28;20768;-26
2024/01/28 10:17:52;;;;;;;2.50;1.10;;;;;;;;;;5071957;28;20040;-26
2024/01/28 10:20:23;;;;;;;4.15;1.20;;;;;;;;;;5068595;28;20066;-26
2024/01/28 10:22:54;;;;;;;3.85;1.08;;;;;;;;;;5071397;28;20027;-26
2024/01/28 10:25:22;;;;;;;3.85;1.33;;;;;;;;;;5072034;28;20037;-26
2024/01/28 10:27:49;;;;;;;3.22;1.30;;;;;;;;;;5071984;28;20036;-26
2024/01/28 10:30:20;;;;;;;3.05;1.20;;;;;;;;;;5071555;28;20066;-26
2024/01/28 10:32:47;;;;;;;2.22;1.00;;;;;;;;;;5067360;28;20042;-26
2024/01/28 10:35:17;;;;;;;3.30;1.40;;;;;;;;;;5071778;28;20484;-26
2024/01/28 10:37:52;;;;;;;2.10;1.00;;;;;;;;;;5070788;28;20047;-26
2024/01/28 10:40:19;;;;;;;2.97;1.25;;;;;;;;;;5071897;28;20478;-26
2024/01/28 10:42:49;;;;;;;2.88;1.20;;;;;;;;;;5071866;28;20040;-27
2024/01/28 10:45:19;;;;;;;5.32;1.30;;;;;;;;;;5067353;28;20110;-26
2024/01/28 10:47:49;;;;;;;5.70;1.65;;;;;;;;;;5071879;28;20021;-26
2024/01/28 10:50:17;;;;;;;3.83;1.30;;;;;;;;;;5071721;28;20039;-26
2024/01/28 10:52:45;;;;;;;5.35;1.45;;;;;;;;;;5071641;28;20042;-26
2024/01/28 10:55:12;;;;;;;3.03;1.10;;;;;;;;;;5070512;28;20037;-26
2024/01/28 10:57:41;;;;;;;4.43;1.55;;;;;;;;;;5068305;28;20068;-26
2024/01/28 11:00:10;;;;;;;5.40;1.40;;;;;;;;;;5071608;28;20537;-26
2024/01/28 11:02:39;;;;;;;5.95;1.58;;;;;;;;;;5071646;28;20086;-26
2024/01/28 11:05:07;;;;;;;3.65;1.02;;;;;;;;;;5071264;28;20032;-26
2024/01/28 11:07:35;;;;;;;4.82;1.30;;;;;;;;;;5069814;28;20024;-27
2024/01/28 11:10:02;;;;;;;4.82;1.40;;;;;;;;;;5069043;28;20052;-26
2024/01/28 11:12:29;;;;;;;3.70;1.30;;;;;;;;;;5071519;28;20035;-26
2024/01/28 11:14:59;;;;;;;2.25;1.30;;;;;;;;;;5071348;28;20115;-26
2024/01/28 11:17:35;;;;;;;2.72;1.10;;;;;;;;;;5071724;28;20493;-26
2024/01/28 11:20:09;;;;;;;2.55;1.30;;;;;;;;;;5067726;28;20036;-26
2024/01/28 11:22:49;;;;;;;3.17;1.30;;;;;;;;;;5071230;28;20024;-26
2024/01/28 11:25:24;;;;;;;3.28;1.38;;;;;;;;;;5071363;28;20483;-27
2024/01/28 11:27:52;;;;;;;3.97;1.27;;;;;;;;;;5071417;28;20059;-26
2024/01/28 11:30:22;;;;;;;4.25;1.38;;;;;;;;;;5073278;28;20032;-27
2024/01/28 11:32:50;;;;;;;3.42;1.23;;;;;;;;;;5071016;28;20024;-26
2024/01/28 11:35:17;;;;;;;3.28;1.27;;;;;;;;;;5075223;28;20048;-26
2024/01/28 11:37:52;;;;;;;4.65;1.45;;;;;;;;;;5075317;28;20029;-26
2024/01/28 11:40:31;;;;;;;2.58;1.13;;;;;;;;;;5075140;28;20032;-26
2024/01/28 11:42:59;;;;;;;3.97;1.60;;;;;;;;;;5072935;28;20038;-27
2024/01/28 11:45:26;;;;;;;4.65;1.50;;;;;;;;;;5072638;28;20094;-26
2024/01/28 11:47:53;;;;;;;3.53;1.20;;;;;;;;;;5075047;28;20089;-26
2024/01/28 11:50:20;;;;;;;4.93;1.60;;;;;;;;;;5075000;28;20440;-26
2024/01/28 11:52:47;;;;;;;4.03;1.65;;;;;;;;;;5075097;28;20031;-26
2024/01/28 11:55:14;;;;;;;4.45;1.48;;;;;;;;;;5071401;28;20052;-26
2024/01/28 11:57:41;;;;;;;2.75;1.35;;;;;;;;;;5073797;28;20456;-26
2024/01/28 12:00:10;;;;;;;4.47;1.40;;;;;;;;;;5074812;28;20043;-26
2024/01/28 12:02:38;;;;;;;5.47;1.65;;;;;;;;;;5074975;28;20108;-26
2024/01/28 12:05:06;;;;;;;5.22;1.40;;;;;;;;;;5074730;28;20028;-26
2024/01/28 12:07:37;;;;;;;5.20;1.63;;;;;;;;;;5070435;28;20077;-26
2024/01/28 12:10:07;;;;;;;3.67;1.45;;;;;;;;;;5074493;28;20068;-26
2024/01/28 12:12:35;;;;;;;5.30;2.08;;;;;;;;;;5074639;28;20074;-26
2024/01/28 12:15:03;;;;;;;7.20;1.50;;;;;;;;;;5074567;28;20028;-26
2024/01/28 12:17:36;;;;;;;6.65;1.58;;;;;;;;;;5074566;28;20036;-26
2024/01/28 12:20:05;;;;;;;4.75;1.88;;;;;;;;;;5069870;28;20048;-26
2024/01/28 12:22:38;;;;;;;3.28;1.25;;;;;;;;;;5074561;28;20025;-26
2024/01/28 12:25:12;;;;;;;4.60;1.50;;;;;;;;;;5074261;28;20486;-26
2024/01/28 12:27:40;;;;;;;3.28;1.50;;;;;;;;;;5074527;28;20074;-26
2024/01/28 12:30:09;;;;;;;6.70;1.60;;;;;;;;;;5073503;28;20047;-26
2024/01/28 12:32:39;;;;;;;2.58;1.25;;;;;;;;;;5071081;28;20111;-26
2024/01/28 12:35:07;;;;;;;6.55;1.88;;;;;;;;;;5074242;28;20054;-26
2024/01/28 12:37:35;;;;;;;5.85;1.42;;;;;;;;;;5074310;28;20040;-26
2024/01/28 12:40:02;;;;;;;5.15;1.67;;;;;;;;;;5074014;28;20037;-26
2024/01/28 12:42:30;;;;;;;8.27;1.40;;;;;;;;;;5072519;28;20823;-27
2024/01/28 12:44:57;;;;;;;5.28;1.45;;;;;;;;;;5070853;28;20044;-26
2024/01/28 12:47:24;;;;;;;5.88;1.48;;;;;;;;;;5074135;28;20728;-26
2024/01/28 12:49:51;;;;;;;4.28;1.65;;;;;;;;;;5074040;28;20103;-26
2024/01/28 12:52:18;;;;;;;4.03;1.45;;;;;;;;;;5073959;28;20024;-26
2024/01/28 12:54:45;;;;;;;4.53;1.60;;;;;;;;;;5070264;28;20025;-26
2024/01/28 12:57:13;;;;;;;6.22;1.77;;;;;;;;;;5071473;28;20037;-26
2024/01/28 12:59:41;;;;;;;8.32;1.50;;;;;;;;;;5073874;28;20048;-26
2024/01/28 13:02:09;;;;;;;7.88;1.80;;;;;;;;;;5073759;28;20111;-26
2024/01/28 13:04:36;;;;;;;6.07;1.35;;;;;;;;;;5073677;28;20036;-26
2024/01/28 13:07:03;;;;;;;7.88;1.70;;;;;;;;;;5069701;28;20090;-26
2024/01/28 13:09:30;;;;;;;5.72;1.50;;;;;;;;;;5073236;28;20040;-26
2024/01/28 13:11:58;;;;;;;5.00;1.40;;;;;;;;;;5073547;28;20035;-26
2024/01/28 13:14:25;;;;;;;7.28;1.40;;;;;;;;;;5073602;28;20444;-26
2024/01/28 13:16:52;;;;;;;6.53;1.77;;;;;;;;;;5073375;28;20068;-26
2024/01/28 13:19:18;;;;;;;6.35;1.48;;;;;;;;;;5068926;28;20036;-26
2024/01/28 13:21:46;;;;;;;13.68;1.90;;;;;;;;;;5073327;28;20028;-26
2024/01/28 13:24:12;;;;;;;9.73;1.63;;;;;;;;;;5072056;28;20494;-26
2024/01/28 13:26:39;;;;;;;8.75;1.52;;;;;;;;;;5073384;28;20078;-26
2024/01/28 13:29:06;;;;;;;11.23;1.60;;;;;;;;;;5073312;28;20032;-26
2024/01/28 13:31:33;;;;;;;10.60;1.70;;;;;;;;;;5068730;28;20056;-26
2024/01/28 13:34:00;;;;;;;7.07;1.92;;;;;;;;;;5073073;28;20074;-26
2024/01/28 13:36:27;;;;;;;7.63;1.75;;;;;;;;;;5073086;28;20028;-26
2024/01/28 13:38:54;;;;;;;5.63;1.58;;;;;;;;;;5073104;28;20028;-26
2024/01/28 13:41:21;;;;;;;6.78;1.58;;;;;;;;;;5071981;28;20184;-26
2024/01/28 13:43:48;;;;;;;9.63;1.70;;;;;;;;;;5069525;28;20040;-26
2024/01/28 13:46:15;;;;;;;14.30;2.25;;;;;;;;;;5072852;28;20028;-26
2024/01/28 13:48:42;;;;;;;6.65;1.80;;;;;;;;;;5072922;28;20086;-26
2024/01/28 13:51:09;;;;;;;7.68;1.90;;;;;;;;;;5072713;28;20036;-26
2024/01/28 13:53:36;;;;;;;13.20;1.90;;;;;;;;;;5070558;28;20032;-26
2024/01/28 13:56:04;;;;;;;10.45;1.70;;;;;;;;;;5069664;28;20489;-26
2024/01/28 13:58:31;;;;;;;5.38;1.38;;;;;;;;;;5072656;28;20151;-26
2024/01/28 14:00:58;;;;;;;7.15;1.58;;;;;;;;;;5072528;28;20035;-26
2024/01/28 14:03:25;;;;;;;10.50;2.05;;;;;;;;;;5072667;28;20025;-26
2024/01/28 14:05:52;;;;;;;4.50;1.23;;;;;;;;;;5069822;28;20024;-26
2024/01/28 14:08:20;;;;;;;6.82;1.70;;;;;;;;;;5070682;28;20051;-26
2024/01/28 14:10:47;;;;;;;8.52;1.65;;;;;;;;;;5072276;28;20040;-26
2024/01/28 14:13:14;;;;;;;7.28;2.05;;;;;;;;;;5072476;28;20059;-26
2024/01/28 14:15:41;;;;;;;5.72;1.48;;;;;;;;;;5072095;28;20036;-26
2024/01/28 14:18:08;;;;;;;5.05;1.40;;;;;;;;;;5068428;28;20140;-26
2024/01/28 14:20:35;;;;;;;8.00;2.00;;;;;;;;;;5071894;28;20016;-26
2024/01/28 14:23:02;;;;;;;4.80;1.30;;;;;;;;;;5072149;28;20107;-26
2024/01/28 14:25:29;;;;;;;9.07;1.75;;;;;;;;;;5072149;28;20054;-26
2024/01/28 14:27:56;;;;;;;10.02;1.90;;;;;;;;;;5072196;28;20486;-26
2024/01/28 14:30:23;;;;;;;6.20;1.60;;;;;;;;;;5067496;28;20128;-26
2024/01/28 14:32:50;;;;;;;5.93;1.77;;;;;;;;;;5072080;28;20021;-26
2024/01/28 14:35:17;;;;;;;6.82;1.65;;;;;;;;;;5071997;28;20067;-26
2024/01/28 14:37:44;;;;;;;7.88;1.50;;;;;;;;;;5071938;28;20059;-26
2024/01/28 14:40:11;;;;;;;7.32;2.00;;;;;;;;;;5071631;28;20035;-26
2024/01/28 14:42:37;;;;;;;7.90;1.67;;;;;;;;;;5067789;28;20024;-26